sensor_id;sensor_type;location;lat;lon;timestamp;pressure;altitude;pressure_sealevel;temperature;humidity
26443;BME280;5563;52.296;6.806;2023-03-19T00:00:00;100958.06;;;9.82;82.73
26443;BME280;5563;52.296;6.806;2023-03-19T00:02:40;100958.78;;;9.84;82.50
26443;BME280;5563;52.296;6.806;2023-03-19T00:05:20;101003.41;;;10.05;82.37
26443;BME280;5563;52.296;6.806;2023-03-19T00:08:08;101013.19;;;10.04;81.97
26443;BME280;5563;52.296;6.806;2023-03-19T00:10:44;100989.41;;;9.90;81.94
26443;BME280;5563;52.296;6.806;2023-03-19T00:13:30;100983.63;;;9.96;81.99
26443;BME280;5563;52.296;6.806;2023-03-19T00:16:12;101023.06;;;10.15;81.88
26443;BME280;5563;52.296;6.806;2023-03-19T00:18:55;100991.38;;;9.99;81.58
26443;BME280;5563;52.296;6.806;2023-03-19T00:21:36;100996.50;;;10.02;81.38
26443;BME280;5563;52.296;6.806;2023-03-19T00:24:05;101003.72;;;10.13;81.12
26443;BME280;5563;52.296;6.806;2023-03-19T00:26:48;101007.94;;;10.15;80.89
26443;BME280;5563;52.296;6.806;2023-03-19T00:29:41;101025.31;;;10.32;80.71
26443;BME280;5563;52.296;6.806;2023-03-19T00:32:10;100979.59;;;10.14;80.41
26443;BME280;5563;52.296;6.806;2023-03-19T00:34:57;100981.16;;;10.17;79.91
26443;BME280;5563;52.296;6.806;2023-03-19T00:37:41;100983.63;;;10.20;79.50
26443;BME280;5563;52.296;6.806;2023-03-19T00:40:26;101018.66;;;10.48;78.79
26443;BME280;5563;52.296;6.806;2023-03-19T00:43:04;100989.69;;;10.33;78.87
26443;BME280;5563;52.296;6.806;2023-03-19T00:45:45;100997.22;;;10.39;78.33
26443;BME280;5563;52.296;6.806;2023-03-19T00:48:32;101033.22;;;10.55;78.03
26443;BME280;5563;52.296;6.806;2023-03-19T00:51:09;100992.13;;;10.36;77.47
26443;BME280;5563;52.296;6.806;2023-03-19T00:54:07;101032.75;;;10.61;77.23
26443;BME280;5563;52.296;6.806;2023-03-19T00:56:50;101032.28;;;10.67;76.57
26443;BME280;5563;52.296;6.806;2023-03-19T00:59:19;101016.41;;;10.66;76.52
26443;BME280;5563;52.296;6.806;2023-03-19T01:02:10;101017.00;;;10.69;76.23
26443;BME280;5563;52.296;6.806;2023-03-19T01:04:58;100996.16;;;10.63;75.95
26443;BME280;5563;52.296;6.806;2023-03-19T01:07:45;100995.78;;;10.68;75.32
26443;BME280;5563;52.296;6.806;2023-03-19T01:10:28;101003.53;;;10.82;74.92
26443;BME280;5563;52.296;6.806;2023-03-19T01:13:08;101022.94;;;10.95;75.31
26443;BME280;5563;52.296;6.806;2023-03-19T01:15:44;100981.97;;;10.74;74.92
26443;BME280;5563;52.296;6.806;2023-03-19T01:18:25;101007.44;;;10.89;74.95
26443;BME280;5563;52.296;6.806;2023-03-19T01:21:01;100991.44;;;10.78;74.89
26443;BME280;5563;52.296;6.806;2023-03-19T01:23:41;100983.44;;;10.78;74.85
26443;BME280;5563;52.296;6.806;2023-03-19T01:26:12;100990.31;;;10.80;74.99
26443;BME280;5563;52.296;6.806;2023-03-19T01:29:08;100994.09;;;10.89;75.48
26443;BME280;5563;52.296;6.806;2023-03-19T01:31:40;101018.47;;;10.96;75.61
26443;BME280;5563;52.296;6.806;2023-03-19T01:34:18;101005.13;;;10.84;75.88
26443;BME280;5563;52.296;6.806;2023-03-19T01:37:04;101013.84;;;10.86;76.30
26443;BME280;5563;52.296;6.806;2023-03-19T01:39:52;101010.22;;;10.76;76.84
26443;BME280;5563;52.296;6.806;2023-03-19T01:43:21;100978.56;;;10.50;77.09
26443;BME280;5563;52.296;6.806;2023-03-19T01:46:13;100989.59;;;10.56;77.51
26443;BME280;5563;52.296;6.806;2023-03-19T01:49:00;100982.94;;;10.51;77.40
26443;BME280;5563;52.296;6.806;2023-03-19T01:51:40;100977.09;;;10.46;77.89
26443;BME280;5563;52.296;6.806;2023-03-19T01:54:19;100967.41;;;10.34;77.68
26443;BME280;5563;52.296;6.806;2023-03-19T01:57:34;101007.53;;;10.54;78.19
26443;BME280;5563;52.296;6.806;2023-03-19T02:00:34;100971.88;;;10.33;78.27
26443;BME280;5563;52.296;6.806;2023-03-19T02:03:18;100974.56;;;10.33;78.09
26443;BME280;5563;52.296;6.806;2023-03-19T02:06:35;100997.25;;;10.50;78.34
26443;BME280;5563;52.296;6.806;2023-03-19T02:09:38;100966.28;;;10.25;78.83
26443;BME280;5563;52.296;6.806;2023-03-19T02:12:28;100995.78;;;10.46;78.63
26443;BME280;5563;52.296;6.806;2023-03-19T02:15:04;100980.63;;;10.35;79.10
26443;BME280;5563;52.296;6.806;2023-03-19T02:17:48;100972.88;;;10.32;79.00
26443;BME280;5563;52.296;6.806;2023-03-19T02:20:47;100971.28;;;10.30;79.40
26443;BME280;5563;52.296;6.806;2023-03-19T02:26:29;100984.50;;;10.42;79.32
26443;BME280;5563;52.296;6.806;2023-03-19T02:29:12;100996.22;;;10.40;79.26
26443;BME280;5563;52.296;6.806;2023-03-19T02:31:49;100990.28;;;10.36;79.41
26443;BME280;5563;52.296;6.806;2023-03-19T02:34:45;100975.50;;;10.21;79.85
26443;BME280;5563;52.296;6.806;2023-03-19T02:37:49;100971.75;;;10.24;80.15
26443;BME280;5563;52.296;6.806;2023-03-19T02:40:44;100988.84;;;10.32;79.95
26443;BME280;5563;52.296;6.806;2023-03-19T02:43:25;100973.78;;;10.20;79.93
26443;BME280;5563;52.296;6.806;2023-03-19T02:46:16;100965.44;;;10.14;80.39
26443;BME280;5563;52.296;6.806;2023-03-19T02:49:01;100985.91;;;10.24;80.07
26443;BME280;5563;52.296;6.806;2023-03-19T02:51:38;100984.81;;;10.16;80.23
26443;BME280;5563;52.296;6.806;2023-03-19T02:54:32;100988.81;;;10.21;80.12
26443;BME280;5563;52.296;6.806;2023-03-19T02:57:31;100966.09;;;10.05;80.13
26443;BME280;5563;52.296;6.806;2023-03-19T03:00:18;101011.38;;;10.28;80.16
26443;BME280;5563;52.296;6.806;2023-03-19T03:03:20;101014.25;;;10.25;80.62
26443;BME280;5563;52.296;6.806;2023-03-19T03:06:05;100971.66;;;10.02;80.83
26443;BME280;5563;52.296;6.806;2023-03-19T03:08:56;101014.50;;;10.22;81.25
26443;BME280;5563;52.296;6.806;2023-03-19T03:11:36;100982.53;;;9.99;81.64
26443;BME280;5563;52.296;6.806;2023-03-19T03:14:08;101020.19;;;10.18;81.46
26443;BME280;5563;52.296;6.806;2023-03-19T03:17:01;100982.78;;;9.96;81.47
26443;BME280;5563;52.296;6.806;2023-03-19T03:19:32;100981.91;;;9.95;81.94
26443;BME280;5563;52.296;6.806;2023-03-19T03:22:10;100988.97;;;9.96;81.27
26443;BME280;5563;52.296;6.806;2023-03-19T03:24:53;100989.81;;;9.97;82.01
26443;BME280;5563;52.296;6.806;2023-03-19T03:27:48;100987.66;;;10.02;81.93
26443;BME280;5563;52.296;6.806;2023-03-19T03:30:34;100991.88;;;10.04;82.01
26443;BME280;5563;52.296;6.806;2023-03-19T03:33:16;100999.78;;;10.06;81.61
26443;BME280;5563;52.296;6.806;2023-03-19T03:36:15;101008.59;;;10.06;81.70
26443;BME280;5563;52.296;6.806;2023-03-19T03:38:58;101019.31;;;10.17;81.34
26443;BME280;5563;52.296;6.806;2023-03-19T03:42:05;101028.56;;;10.24;81.31
26443;BME280;5563;52.296;6.806;2023-03-19T03:44:54;101037.78;;;10.31;81.05
26443;BME280;5563;52.296;6.806;2023-03-19T03:47:51;101041.28;;;10.32;81.26
26443;BME280;5563;52.296;6.806;2023-03-19T03:50:37;101006.38;;;10.13;81.06
26443;BME280;5563;52.296;6.806;2023-03-19T03:53:09;101006.38;;;10.13;81.31
26443;BME280;5563;52.296;6.806;2023-03-19T03:55:56;101022.25;;;10.25;81.20
26443;BME280;5563;52.296;6.806;2023-03-19T03:58:37;101041.06;;;10.35;81.33
26443;BME280;5563;52.296;6.806;2023-03-19T04:01:21;100999.56;;;10.09;81.39
26443;BME280;5563;52.296;6.806;2023-03-19T04:03:59;101011.47;;;10.16;80.99
26443;BME280;5563;52.296;6.806;2023-03-19T04:06:37;100995.16;;;10.08;81.05
26443;BME280;5563;52.296;6.806;2023-03-19T04:09:19;100991.59;;;10.09;80.87
26443;BME280;5563;52.296;6.806;2023-03-19T04:12:30;101003.09;;;10.09;80.92
26443;BME280;5563;52.296;6.806;2023-03-19T04:15:11;101012.78;;;10.10;81.32
26443;BME280;5563;52.296;6.806;2023-03-19T04:17:51;101030.16;;;10.27;81.17
26443;BME280;5563;52.296;6.806;2023-03-19T04:20:28;100994.66;;;10.03;80.87
26443;BME280;5563;52.296;6.806;2023-03-19T04:23:22;101008.19;;;10.12;81.05
26443;BME280;5563;52.296;6.806;2023-03-19T04:26:00;101022.34;;;10.13;81.30
26443;BME280;5563;52.296;6.806;2023-03-19T04:28:51;101022.22;;;10.14;80.92
26443;BME280;5563;52.296;6.806;2023-03-19T04:31:25;101006.59;;;10.10;81.11
26443;BME280;5563;52.296;6.806;2023-03-19T04:34:11;101008.91;;;10.14;80.88
26443;BME280;5563;52.296;6.806;2023-03-19T04:36:44;101045.78;;;10.31;81.47
26443;BME280;5563;52.296;6.806;2023-03-19T04:39:32;101050.16;;;10.32;80.99
26443;BME280;5563;52.296;6.806;2023-03-19T04:42:15;101052.19;;;10.29;81.63
26443;BME280;5563;52.296;6.806;2023-03-19T04:45:05;101023.63;;;10.07;81.54
26443;BME280;5563;52.296;6.806;2023-03-19T04:47:43;101049.50;;;10.18;82.23
26443;BME280;5563;52.296;6.806;2023-03-19T04:50:18;101056.63;;;10.17;82.33
26443;BME280;5563;52.296;6.806;2023-03-19T04:52:49;101048.13;;;10.12;82.78
26443;BME280;5563;52.296;6.806;2023-03-19T04:55:27;101041.13;;;9.99;83.42
26443;BME280;5563;52.296;6.806;2023-03-19T04:57:57;101062.44;;;9.99;83.83
26443;BME280;5563;52.296;6.806;2023-03-19T05:00:32;101040.00;;;9.79;84.10
26443;BME280;5563;52.296;6.806;2023-03-19T05:03:06;101032.56;;;9.71;84.33
26443;BME280;5563;52.296;6.806;2023-03-19T05:05:39;101045.75;;;9.73;85.19
26443;BME280;5563;52.296;6.806;2023-03-19T05:08:07;101047.44;;;9.74;84.99
26443;BME280;5563;52.296;6.806;2023-03-19T05:10:40;101057.28;;;9.73;85.20
26443;BME280;5563;52.296;6.806;2023-03-19T05:13:13;101037.31;;;9.55;85.51
26443;BME280;5563;52.296;6.806;2023-03-19T05:15:41;101063.78;;;9.69;85.64
26443;BME280;5563;52.296;6.806;2023-03-19T05:18:18;101061.66;;;9.62;85.46
26443;BME280;5563;52.296;6.806;2023-03-19T05:20:48;101047.09;;;9.55;86.10
26443;BME280;5563;52.296;6.806;2023-03-19T05:23:22;101052.81;;;9.61;85.99
26443;BME280;5563;52.296;6.806;2023-03-19T05:25:49;101039.69;;;9.47;85.73
26443;BME280;5563;52.296;6.806;2023-03-19T05:28:24;101059.13;;;9.60;86.10
26443;BME280;5563;52.296;6.806;2023-03-19T05:30:51;101056.19;;;9.52;86.01
26443;BME280;5563;52.296;6.806;2023-03-19T05:33:27;101056.38;;;9.49;85.68
26443;BME280;5563;52.296;6.806;2023-03-19T05:35:54;101048.94;;;9.42;85.56
26443;BME280;5563;52.296;6.806;2023-03-19T05:38:28;101062.91;;;9.45;85.38
26443;BME280;5563;52.296;6.806;2023-03-19T05:41:07;101069.41;;;9.41;85.56
26443;BME280;5563;52.296;6.806;2023-03-19T05:43:40;101067.94;;;9.37;85.68
26443;BME280;5563;52.296;6.806;2023-03-19T05:46:14;101084.22;;;9.45;85.77
26443;BME280;5563;52.296;6.806;2023-03-19T05:48:42;101072.91;;;9.42;85.83
26443;BME280;5563;52.296;6.806;2023-03-19T05:51:18;101067.94;;;9.37;86.04
26443;BME280;5563;52.296;6.806;2023-03-19T05:53:52;101078.22;;;9.42;85.93
26443;BME280;5563;52.296;6.806;2023-03-19T05:56:26;101066.13;;;9.38;86.12
26443;BME280;5563;52.296;6.806;2023-03-19T05:58:53;101068.91;;;9.36;86.27
26443;BME280;5563;52.296;6.806;2023-03-19T06:01:27;101062.84;;;9.34;86.08
26443;BME280;5563;52.296;6.806;2023-03-19T06:04:03;101075.28;;;9.34;85.93
26443;BME280;5563;52.296;6.806;2023-03-19T06:06:37;101088.88;;;9.42;85.75
26443;BME280;5563;52.296;6.806;2023-03-19T06:09:04;101076.88;;;9.36;85.89
26443;BME280;5563;52.296;6.806;2023-03-19T06:11:37;101078.81;;;9.34;85.64
26443;BME280;5563;52.296;6.806;2023-03-19T06:14:13;101075.72;;;9.28;85.70
26443;BME280;5563;52.296;6.806;2023-03-19T06:16:47;101086.66;;;9.36;86.21
26443;BME280;5563;52.296;6.806;2023-03-19T06:19:14;101090.06;;;9.38;86.28
26443;BME280;5563;52.296;6.806;2023-03-19T06:21:50;101093.78;;;9.35;86.03
26443;BME280;5563;52.296;6.806;2023-03-19T06:24:18;101078.91;;;9.33;85.87
26443;BME280;5563;52.296;6.806;2023-03-19T06:26:55;101076.25;;;9.33;85.87
26443;BME280;5563;52.296;6.806;2023-03-19T06:29:34;101101.44;;;9.52;85.72
26443;BME280;5563;52.296;6.806;2023-03-19T06:32:09;101073.88;;;9.41;86.35
26443;BME280;5563;52.296;6.806;2023-03-19T06:34:43;101095.03;;;9.55;86.45
26443;BME280;5563;52.296;6.806;2023-03-19T06:37:17;101089.06;;;9.51;86.72
26443;BME280;5563;52.296;6.806;2023-03-19T06:39:45;101100.97;;;9.58;86.21
26443;BME280;5563;52.296;6.806;2023-03-19T06:42:26;101086.28;;;9.53;85.75
26443;BME280;5563;52.296;6.806;2023-03-19T06:44:54;101106.69;;;9.65;85.64
26443;BME280;5563;52.296;6.806;2023-03-19T06:47:28;101108.41;;;9.66;85.72
26443;BME280;5563;52.296;6.806;2023-03-19T06:49:55;101107.66;;;9.64;85.67
26443;BME280;5563;52.296;6.806;2023-03-19T06:52:39;101105.13;;;9.62;85.73
26443;BME280;5563;52.296;6.806;2023-03-19T06:55:13;101104.59;;;9.57;85.84
26443;BME280;5563;52.296;6.806;2023-03-19T06:57:49;101125.94;;;9.68;85.58
26443;BME280;5563;52.296;6.806;2023-03-19T07:00:24;101114.50;;;9.55;85.71
26443;BME280;5563;52.296;6.806;2023-03-19T07:02:51;101117.19;;;9.55;85.88
26443;BME280;5563;52.296;6.806;2023-03-19T07:05:25;101138.94;;;9.73;85.78
26443;BME280;5563;52.296;6.806;2023-03-19T07:07:52;101137.34;;;9.70;85.33
26443;BME280;5563;52.296;6.806;2023-03-19T07:10:20;101136.59;;;9.68;85.44
26443;BME280;5563;52.296;6.806;2023-03-19T07:12:54;101149.16;;;9.79;85.54
26443;BME280;5563;52.296;6.806;2023-03-19T07:15:21;101131.41;;;9.67;85.76
26443;BME280;5563;52.296;6.806;2023-03-19T07:17:56;101150.00;;;9.79;85.69
26443;BME280;5563;52.296;6.806;2023-03-19T07:20:30;101163.31;;;9.79;85.82
26443;BME280;5563;52.296;6.806;2023-03-19T07:22:58;101150.34;;;9.75;85.62
26443;BME280;5563;52.296;6.806;2023-03-19T07:25:32;101152.78;;;9.78;85.66
26443;BME280;5563;52.296;6.806;2023-03-19T07:28:07;101143.94;;;9.77;85.81
26443;BME280;5563;52.296;6.806;2023-03-19T07:30:41;101153.91;;;9.87;85.76
26443;BME280;5563;52.296;6.806;2023-03-19T07:33:15;101162.53;;;9.90;85.69
26443;BME280;5563;52.296;6.806;2023-03-19T07:35:51;101176.91;;;10.00;85.84
26443;BME280;5563;52.296;6.806;2023-03-19T07:38:20;101163.50;;;9.89;86.06
26443;BME280;5563;52.296;6.806;2023-03-19T07:41:05;101175.91;;;10.01;85.75
26443;BME280;5563;52.296;6.806;2023-03-19T07:43:33;101181.13;;;10.03;85.66
26443;BME280;5563;52.296;6.806;2023-03-19T07:46:15;101174.00;;;10.03;85.50
26443;BME280;5563;52.296;6.806;2023-03-19T07:48:45;101172.31;;;10.02;85.71
26443;BME280;5563;52.296;6.806;2023-03-19T07:51:24;101160.28;;;9.97;85.45
26443;BME280;5563;52.296;6.806;2023-03-19T07:53:59;101171.09;;;10.06;85.40
26443;BME280;5563;52.296;6.806;2023-03-19T07:56:40;101192.16;;;10.22;85.07
26443;BME280;5563;52.296;6.806;2023-03-19T07:59:08;101169.59;;;10.15;85.21
26443;BME280;5563;52.296;6.806;2023-03-19T08:01:42;101164.81;;;10.20;84.93
26443;BME280;5563;52.296;6.806;2023-03-19T08:04:16;101184.03;;;10.36;83.91
26443;BME280;5563;52.296;6.806;2023-03-19T08:06:46;101176.13;;;10.34;83.94
26443;BME280;5563;52.296;6.806;2023-03-19T08:09:23;101198.47;;;10.44;83.15
26443;BME280;5563;52.296;6.806;2023-03-19T08:11:50;101197.38;;;10.47;83.08
26443;BME280;5563;52.296;6.806;2023-03-19T08:14:25;101186.97;;;10.44;83.38
26443;BME280;5563;52.296;6.806;2023-03-19T08:16:52;101183.84;;;10.50;82.74
26443;BME280;5563;52.296;6.806;2023-03-19T08:19:26;101195.22;;;10.52;82.55
26443;BME280;5563;52.296;6.806;2023-03-19T08:21:54;101198.41;;;10.57;82.20
26443;BME280;5563;52.296;6.806;2023-03-19T08:24:34;101182.00;;;10.50;81.71
26443;BME280;5563;52.296;6.806;2023-03-19T08:27:02;101201.59;;;10.62;81.76
26443;BME280;5563;52.296;6.806;2023-03-19T08:29:38;101207.84;;;10.61;81.84
26443;BME280;5563;52.296;6.806;2023-03-19T08:32:06;101183.38;;;10.56;81.77
26443;BME280;5563;52.296;6.806;2023-03-19T08:34:34;101209.63;;;10.73;81.10
26443;BME280;5563;52.296;6.806;2023-03-19T08:37:15;101183.78;;;10.62;81.30
26443;BME280;5563;52.296;6.806;2023-03-19T08:40:02;101217.66;;;10.84;81.13
26443;BME280;5563;52.296;6.806;2023-03-19T08:42:41;101222.53;;;10.90;80.35
26443;BME280;5563;52.296;6.806;2023-03-19T08:45:12;101216.34;;;10.89;80.78
26443;BME280;5563;52.296;6.806;2023-03-19T08:47:50;101210.53;;;10.96;80.91
26443;BME280;5563;52.296;6.806;2023-03-19T08:50:20;101214.19;;;11.06;80.67
26443;BME280;5563;52.296;6.806;2023-03-19T08:52:54;101209.72;;;11.06;79.46
26443;BME280;5563;52.296;6.806;2023-03-19T08:55:30;101237.03;;;11.21;79.71
26443;BME280;5563;52.296;6.806;2023-03-19T08:58:10;101243.34;;;11.20;79.46
26443;BME280;5563;52.296;6.806;2023-03-19T09:00:41;101243.47;;;11.18;79.57
26443;BME280;5563;52.296;6.806;2023-03-19T09:03:19;101250.50;;;11.19;79.95
26443;BME280;5563;52.296;6.806;2023-03-19T09:05:48;101232.63;;;11.09;79.90
26443;BME280;5563;52.296;6.806;2023-03-19T09:08:29;101235.78;;;11.03;79.78
26443;BME280;5563;52.296;6.806;2023-03-19T09:11:05;101236.97;;;10.99;79.85
26443;BME280;5563;52.296;6.806;2023-03-19T09:13:52;101254.09;;;11.07;80.16
26443;BME280;5563;52.296;6.806;2023-03-19T09:16:33;101236.97;;;10.99;80.46
26443;BME280;5563;52.296;6.806;2023-03-19T09:19:11;101250.34;;;11.10;80.08
26443;BME280;5563;52.296;6.806;2023-03-19T09:21:46;101273.91;;;11.16;80.02
26443;BME280;5563;52.296;6.806;2023-03-19T09:24:25;101274.13;;;11.13;79.73
26443;BME280;5563;52.296;6.806;2023-03-19T09:26:59;101245.97;;;10.98;79.93
26443;BME280;5563;52.296;6.806;2023-03-19T09:29:34;101254.59;;;11.01;79.46
26443;BME280;5563;52.296;6.806;2023-03-19T09:32:08;101268.91;;;11.11;79.51
26443;BME280;5563;52.296;6.806;2023-03-19T09:34:52;101277.81;;;11.23;79.79
26443;BME280;5563;52.296;6.806;2023-03-19T09:37:29;101278.19;;;11.29;79.09
26443;BME280;5563;52.296;6.806;2023-03-19T09:40:00;101272.00;;;11.29;78.92
26443;BME280;5563;52.296;6.806;2023-03-19T09:42:54;101287.94;;;11.52;78.46
26443;BME280;5563;52.296;6.806;2023-03-19T09:45:30;101282.97;;;11.59;78.10
26443;BME280;5563;52.296;6.806;2023-03-19T09:48:13;101294.66;;;11.80;77.54
26443;BME280;5563;52.296;6.806;2023-03-19T09:50:48;101286.31;;;11.84;77.42
26443;BME280;5563;52.296;6.806;2023-03-19T09:53:53;101305.38;;;12.02;76.92
26443;BME280;5563;52.296;6.806;2023-03-19T09:56:27;101301.00;;;12.01;74.94
26443;BME280;5563;52.296;6.806;2023-03-19T09:59:10;101281.44;;;11.78;74.76
26443;BME280;5563;52.296;6.806;2023-03-19T10:02:05;101289.94;;;11.83;75.00
26443;BME280;5563;52.296;6.806;2023-03-19T10:10:50;101311.44;;;12.15;74.08
26443;BME280;5563;52.296;6.806;2023-03-19T10:16:28;101303.84;;;12.53;74.07
26443;BME280;5563;52.296;6.806;2023-03-19T10:19:15;101306.22;;;12.78;73.12
26443;BME280;5563;52.296;6.806;2023-03-19T10:22:04;101279.03;;;13.26;72.23
26443;BME280;5563;52.296;6.806;2023-03-19T10:24:45;101278.34;;;13.54;70.52
26443;BME280;5563;52.296;6.806;2023-03-19T10:27:29;101278.72;;;13.70;69.57
26443;BME280;5563;52.296;6.806;2023-03-19T10:30:12;101287.69;;;14.20;68.87
26443;BME280;5563;52.296;6.806;2023-03-19T10:33:15;101294.78;;;14.70;67.59
26443;BME280;5563;52.296;6.806;2023-03-19T10:36:13;101280.19;;;14.53;65.74
26443;BME280;5563;52.296;6.806;2023-03-19T10:38:47;101282.25;;;14.31;66.22
26443;BME280;5563;52.296;6.806;2023-03-19T10:42:21;101306.31;;;14.12;67.11
26443;BME280;5563;52.296;6.806;2023-03-19T10:44:49;101293.91;;;14.20;67.34
26443;BME280;5563;52.296;6.806;2023-03-19T10:47:25;101292.59;;;14.45;66.16
26443;BME280;5563;52.296;6.806;2023-03-19T10:50:30;101291.41;;;14.96;66.22
26443;BME280;5563;52.296;6.806;2023-03-19T10:58:40;101309.09;;;16.30;60.45
26443;BME280;5563;52.296;6.806;2023-03-19T11:01:15;101316.63;;;16.53;60.67
26443;BME280;5563;52.296;6.806;2023-03-19T11:03:58;101323.53;;;17.00;59.92
26443;BME280;5563;52.296;6.806;2023-03-19T11:06:34;101318.69;;;17.04;59.69
26443;BME280;5563;52.296;6.806;2023-03-19T11:09:39;101315.00;;;17.05;57.63
26443;BME280;5563;52.296;6.806;2023-03-19T11:12:33;101309.75;;;16.86;59.85
26443;BME280;5563;52.296;6.806;2023-03-19T11:15:19;101304.72;;;16.56;58.43
26443;BME280;5563;52.296;6.806;2023-03-19T11:18:23;101329.19;;;16.62;58.55
26443;BME280;5563;52.296;6.806;2023-03-19T11:21:19;101291.84;;;16.50;58.31
26443;BME280;5563;52.296;6.806;2023-03-19T11:24:02;101301.00;;;16.30;59.09
26443;BME280;5563;52.296;6.806;2023-03-19T11:26:39;101292.38;;;15.89;57.91
26443;BME280;5563;52.296;6.806;2023-03-19T11:29:16;101294.50;;;15.49;59.27
26443;BME280;5563;52.296;6.806;2023-03-19T11:32:12;101308.63;;;15.42;60.61
26443;BME280;5563;52.296;6.806;2023-03-19T11:44:08;101305.66;;;16.64;57.99
26443;BME280;5563;52.296;6.806;2023-03-19T12:05:31;101301.03;;;17.88;53.53
26443;BME280;5563;52.296;6.806;2023-03-19T12:08:30;101290.66;;;17.75;52.78
26443;BME280;5563;52.296;6.806;2023-03-19T12:11:36;101301.66;;;17.82;53.77
26443;BME280;5563;52.296;6.806;2023-03-19T12:17:07;101269.91;;;17.76;52.53
26443;BME280;5563;52.296;6.806;2023-03-19T12:20:14;101309.66;;;17.91;52.90
26443;BME280;5563;52.296;6.806;2023-03-19T12:26:20;101293.81;;;17.71;51.28
26443;BME280;5563;52.296;6.806;2023-03-19T12:35:18;101293.16;;;18.86;48.78
26443;BME280;5563;52.296;6.806;2023-03-19T12:38:36;101295.38;;;18.98;49.04
26443;BME280;5563;52.296;6.806;2023-03-19T12:41:09;101276.63;;;18.89;48.99
26443;BME280;5563;52.296;6.806;2023-03-19T12:43:58;101309.22;;;19.03;48.58
26443;BME280;5563;52.296;6.806;2023-03-19T12:46:39;101310.94;;;19.04;49.64
26443;BME280;5563;52.296;6.806;2023-03-19T12:49:23;101301.81;;;19.21;47.50
26443;BME280;5563;52.296;6.806;2023-03-19T12:55:22;101300.81;;;18.41;47.72
26443;BME280;5563;52.296;6.806;2023-03-19T12:58:13;101305.22;;;18.16;48.99
26443;BME280;5563;52.296;6.806;2023-03-19T13:01:13;101291.72;;;17.82;49.28
26443;BME280;5563;52.296;6.806;2023-03-19T13:03:49;101305.72;;;17.43;49.54
26443;BME280;5563;52.296;6.806;2023-03-19T13:06:35;101317.22;;;17.27;50.55
26443;BME280;5563;52.296;6.806;2023-03-19T13:09:21;101293.28;;;17.06;50.90
26443;BME280;5563;52.296;6.806;2023-03-19T13:12:02;101308.34;;;16.82;51.41
26443;BME280;5563;52.296;6.806;2023-03-19T13:15:39;101316.81;;;16.42;52.13
26443;BME280;5563;52.296;6.806;2023-03-19T13:18:27;101308.53;;;16.53;53.04
26443;BME280;5563;52.296;6.806;2023-03-19T13:25:14;101308.59;;;17.23;50.91
26443;BME280;5563;52.296;6.806;2023-03-19T13:27:53;101297.66;;;17.25;51.51
26443;BME280;5563;52.296;6.806;2023-03-19T13:46:53;101297.00;;;17.66;48.20
26443;BME280;5563;52.296;6.806;2023-03-19T13:49:34;101295.75;;;17.17;49.30
26443;BME280;5563;52.296;6.806;2023-03-19T13:55:25;101300.81;;;16.68;50.46
26443;BME280;5563;52.296;6.806;2023-03-19T14:00:55;101305.28;;;16.23;52.71
26443;BME280;5563;52.296;6.806;2023-03-19T14:03:34;101302.25;;;16.08;53.02
26443;BME280;5563;52.296;6.806;2023-03-19T14:06:29;101304.25;;;15.96;53.38
26443;BME280;5563;52.296;6.806;2023-03-19T14:09:19;101308.44;;;16.45;52.45
26443;BME280;5563;52.296;6.806;2023-03-19T14:14:47;101296.94;;;17.58;49.63
26443;BME280;5563;52.296;6.806;2023-03-19T14:17:39;101310.13;;;17.61;50.10
26443;BME280;5563;52.296;6.806;2023-03-19T14:28:52;101324.69;;;16.26;52.75
26443;BME280;5563;52.296;6.806;2023-03-19T14:31:56;101323.28;;;16.22;52.80
26443;BME280;5563;52.296;6.806;2023-03-19T14:34:37;101324.47;;;16.10;52.69
26443;BME280;5563;52.296;6.806;2023-03-19T14:37:23;101321.25;;;15.97;52.22
26443;BME280;5563;52.296;6.806;2023-03-19T14:39:57;101327.81;;;15.85;52.88
26443;BME280;5563;52.296;6.806;2023-03-19T14:42:32;101320.03;;;15.72;54.00
26443;BME280;5563;52.296;6.806;2023-03-19T14:59:48;101325.88;;;15.10;56.20
26443;BME280;5563;52.296;6.806;2023-03-19T15:02:41;101332.38;;;14.98;56.76
26443;BME280;5563;52.296;6.806;2023-03-19T15:05:28;101332.38;;;14.98;56.71
26443;BME280;5563;52.296;6.806;2023-03-19T15:08:05;101333.94;;;15.10;57.26
26443;BME280;5563;52.296;6.806;2023-03-19T15:11:00;101333.22;;;15.28;56.62
26443;BME280;5563;52.296;6.806;2023-03-19T15:18:47;101342.28;;;15.17;57.76
26443;BME280;5563;52.296;6.806;2023-03-19T15:21:21;101337.50;;;15.11;57.79
26443;BME280;5563;52.296;6.806;2023-03-19T15:23:48;101343.25;;;15.06;58.29
26443;BME280;5563;52.296;6.806;2023-03-19T15:26:34;101341.56;;;14.96;58.38
26443;BME280;5563;52.296;6.806;2023-03-19T15:29:08;101356.38;;;14.90;58.46
26443;BME280;5563;52.296;6.806;2023-03-19T15:31:46;101349.88;;;14.83;59.17
26443;BME280;5563;52.296;6.806;2023-03-19T15:34:30;101348.59;;;14.68;61.54
26443;BME280;5563;52.296;6.806;2023-03-19T15:37:07;101358.84;;;14.54;62.63
26443;BME280;5563;52.296;6.806;2023-03-19T15:39:50;101360.53;;;14.45;63.69
26443;BME280;5563;52.296;6.806;2023-03-19T15:42:22;101365.47;;;14.40;64.95
26443;BME280;5563;52.296;6.806;2023-03-19T15:45:07;101358.22;;;14.31;65.80
26443;BME280;5563;52.296;6.806;2023-03-19T15:47:56;101358.13;;;14.22;65.75
26443;BME280;5563;52.296;6.806;2023-03-19T15:50:34;101360.50;;;14.15;66.73
26443;BME280;5563;52.296;6.806;2023-03-19T15:53:06;101362.84;;;14.08;66.20
26443;BME280;5563;52.296;6.806;2023-03-19T15:55:41;101367.78;;;14.03;66.98
26443;BME280;5563;52.296;6.806;2023-03-19T15:58:13;101380.28;;;13.93;67.65
26443;BME280;5563;52.296;6.806;2023-03-19T16:00:50;101382.53;;;13.88;67.38
26443;BME280;5563;52.296;6.806;2023-03-19T16:03:28;101379.50;;;13.82;67.78
26443;BME280;5563;52.296;6.806;2023-03-19T16:06:06;101373.63;;;13.88;68.69
26443;BME280;5563;52.296;6.806;2023-03-19T16:08:51;101374.53;;;13.98;68.81
26443;BME280;5563;52.296;6.806;2023-03-19T16:11:36;101367.41;;;14.18;67.96
26443;BME280;5563;52.296;6.806;2023-03-19T16:14:21;101347.13;;;14.25;67.26